<?xml version="1.0" encoding="UTF-8" standalone="no" ?>
<gpx xmlns="http://www.topografix.com/GPX/1/1" xmlns:xsi="http://www.w3.org/2001/XMLSchema-instance" xsi:schemaLocation="http://www.topografix.com/GPX/1/1 http://www.topografix.com/GPX/1/1/gpx.xsd" version="1.1" creator="VisuGPX - https://www.visugpx.com">
  <metadata>
    <name>Sautron_Autour_8-10km</name>
    <desc><![CDATA[gnerando idor8372687_6691475_6690164_8372687]]></desc>
  </metadata>
  <trk>
    <name><![CDATA[Sautron_SautronEst_8.3km-6690164]]></name>
    <extensions>
      <line xmlns="http://www.topografix.com/GPX/gpx_style/0/2">
        <color>FF0000</color>
        <width>4</width>
      </line>
    </extensions>
    <trkseg>
      <trkpt lat="47.26811" lon="-1.67101">
        <ele>43</ele>
        <time>2023-11-13T11:15:02Z</time>
      </trkpt>
      <trkpt lat="47.268" lon="-1.67135">
        <ele>43</ele>
        <time>2023-11-13T11:15:36Z</time>
      </trkpt>
      <trkpt lat="47.26742" lon="-1.67146">
        <ele>47</ele>
        <time>2023-11-13T11:16:54Z</time>
      </trkpt>
      <trkpt lat="47.26686" lon="-1.67211">
        <ele>53</ele>
        <time>2023-11-13T11:18:29Z</time>
      </trkpt>
      <trkpt lat="47.26639" lon="-1.67154">
        <ele>55</ele>
        <time>2023-11-13T11:19:51Z</time>
      </trkpt>
      <trkpt lat="47.26595" lon="-1.67105">
        <ele>58</ele>
        <time>2023-11-13T11:21:04Z</time>
      </trkpt>
      <trkpt lat="47.26505" lon="-1.67178">
        <ele>64</ele>
        <time>2023-11-13T11:23:21Z</time>
      </trkpt>
      <trkpt lat="47.26451" lon="-1.6732">
        <ele>67</ele>
        <time>2023-11-13T11:25:49Z</time>
      </trkpt>
      <trkpt lat="47.26422" lon="-1.67375">
        <ele>66</ele>
        <time>2023-11-13T11:26:52Z</time>
      </trkpt>
      <trkpt lat="47.26374" lon="-1.67352">
        <ele>67</ele>
        <time>2023-11-13T11:27:59Z</time>
      </trkpt>
      <trkpt lat="47.26315" lon="-1.67296">
        <ele>67</ele>
        <time>2023-11-13T11:29:33Z</time>
      </trkpt>
      <trkpt lat="47.26282" lon="-1.67305">
        <ele>67</ele>
        <time>2023-11-13T11:30:17Z</time>
      </trkpt>
      <trkpt lat="47.26273" lon="-1.67246">
        <ele>67</ele>
        <time>2023-11-13T11:31:12Z</time>
      </trkpt>
      <trkpt lat="47.26242" lon="-1.67256">
        <ele>67</ele>
        <time>2023-11-13T11:31:55Z</time>
      </trkpt>
      <trkpt lat="47.26236" lon="-1.67236">
        <ele>67</ele>
        <time>2023-11-13T11:32:14Z</time>
      </trkpt>
      <trkpt lat="47.26135" lon="-1.67287">
        <ele>65</ele>
        <time>2023-11-13T11:34:37Z</time>
      </trkpt>
      <trkpt lat="47.26133" lon="-1.673">
        <ele>65</ele>
        <time>2023-11-13T11:34:49Z</time>
      </trkpt>
      <trkpt lat="47.2609" lon="-1.67319">
        <ele>63</ele>
        <time>2023-11-13T11:35:49Z</time>
      </trkpt>
      <trkpt lat="47.26082" lon="-1.67314">
        <ele>63</ele>
        <time>2023-11-13T11:36:00Z</time>
      </trkpt>
      <trkpt lat="47.25989" lon="-1.67343">
        <ele>59</ele>
        <time>2023-11-13T11:38:07Z</time>
      </trkpt>
      <trkpt lat="47.2591" lon="-1.67367">
        <ele>56</ele>
        <time>2023-11-13T11:39:55Z</time>
      </trkpt>
      <trkpt lat="47.25746" lon="-1.67406">
        <ele>49</ele>
        <time>2023-11-13T11:43:37Z</time>
      </trkpt>
      <trkpt lat="47.2569" lon="-1.67336">
        <ele>50</ele>
        <time>2023-11-13T11:45:15Z</time>
      </trkpt>
      <trkpt lat="47.25666" lon="-1.67309">
        <ele>51</ele>
        <time>2023-11-13T11:45:55Z</time>
      </trkpt>
      <trkpt lat="47.25675" lon="-1.67259">
        <ele>52</ele>
        <time>2023-11-13T11:46:42Z</time>
      </trkpt>
      <trkpt lat="47.25627" lon="-1.67272">
        <ele>52</ele>
        <time>2023-11-13T11:47:47Z</time>
      </trkpt>
      <trkpt lat="47.25581" lon="-1.67283">
        <ele>51</ele>
        <time>2023-11-13T11:48:49Z</time>
      </trkpt>
      <trkpt lat="47.25514" lon="-1.67301">
        <ele>49</ele>
        <time>2023-11-13T11:50:20Z</time>
      </trkpt>
      <trkpt lat="47.25468" lon="-1.67314">
        <ele>47</ele>
        <time>2023-11-13T11:51:22Z</time>
      </trkpt>
      <trkpt lat="47.25446" lon="-1.67336">
        <ele>46</ele>
        <time>2023-11-13T11:51:58Z</time>
      </trkpt>
      <trkpt lat="47.25433" lon="-1.67341">
        <ele>45</ele>
        <time>2023-11-13T11:52:16Z</time>
      </trkpt>
      <trkpt lat="47.25427" lon="-1.67337">
        <ele>45</ele>
        <time>2023-11-13T11:52:25Z</time>
      </trkpt>
      <trkpt lat="47.25418" lon="-1.67313">
        <ele>45</ele>
        <time>2023-11-13T11:52:49Z</time>
      </trkpt>
      <trkpt lat="47.25404" lon="-1.67013">
        <ele>48</ele>
        <time>2023-11-13T11:57:22Z</time>
      </trkpt>
      <trkpt lat="47.25397" lon="-1.66897">
        <ele>47</ele>
        <time>2023-11-13T11:59:07Z</time>
      </trkpt>
      <trkpt lat="47.25401" lon="-1.66887">
        <ele>47</ele>
        <time>2023-11-13T11:59:18Z</time>
      </trkpt>
      <trkpt lat="47.25414" lon="-1.66882">
        <ele>47</ele>
        <time>2023-11-13T11:59:36Z</time>
      </trkpt>
      <trkpt lat="47.25418" lon="-1.66866">
        <ele>46</ele>
        <time>2023-11-13T11:59:51Z</time>
      </trkpt>
      <trkpt lat="47.25384" lon="-1.66862">
        <ele>46</ele>
        <time>2023-11-13T12:00:37Z</time>
      </trkpt>
      <trkpt lat="47.25367" lon="-1.66857">
        <ele>45</ele>
        <time>2023-11-13T12:01:00Z</time>
      </trkpt>
      <trkpt lat="47.25336" lon="-1.66854">
        <ele>45</ele>
        <time>2023-11-13T12:01:41Z</time>
      </trkpt>
      <trkpt lat="47.25334" lon="-1.66642">
        <ele>42</ele>
        <time>2023-11-13T12:04:53Z</time>
      </trkpt>
      <trkpt lat="47.25327" lon="-1.66512">
        <ele>42</ele>
        <time>2023-11-13T12:06:52Z</time>
      </trkpt>
      <trkpt lat="47.2543" lon="-1.6648">
        <ele>46</ele>
        <time>2023-11-13T12:09:12Z</time>
      </trkpt>
      <trkpt lat="47.25467" lon="-1.66434">
        <ele>47</ele>
        <time>2023-11-13T12:10:17Z</time>
      </trkpt>
      <trkpt lat="47.25478" lon="-1.66412">
        <ele>48</ele>
        <time>2023-11-13T12:10:41Z</time>
      </trkpt>
      <trkpt lat="47.2549" lon="-1.66402">
        <ele>48</ele>
        <time>2023-11-13T12:11:00Z</time>
      </trkpt>
      <trkpt lat="47.25489" lon="-1.66388">
        <ele>48</ele>
        <time>2023-11-13T12:11:12Z</time>
      </trkpt>
      <trkpt lat="47.25479" lon="-1.66381">
        <ele>48</ele>
        <time>2023-11-13T12:11:27Z</time>
      </trkpt>
      <trkpt lat="47.25417" lon="-1.66266">
        <ele>47</ele>
        <time>2023-11-13T12:13:40Z</time>
      </trkpt>
      <trkpt lat="47.25369" lon="-1.66186">
        <ele>46</ele>
        <time>2023-11-13T12:15:17Z</time>
      </trkpt>
      <trkpt lat="47.25358" lon="-1.66153">
        <ele>46</ele>
        <time>2023-11-13T12:15:50Z</time>
      </trkpt>
      <trkpt lat="47.25362" lon="-1.66003">
        <ele>46</ele>
        <time>2023-11-13T12:18:06Z</time>
      </trkpt>
      <trkpt lat="47.25363" lon="-1.65908">
        <ele>47</ele>
        <time>2023-11-13T12:19:32Z</time>
      </trkpt>
      <trkpt lat="47.25372" lon="-1.65807">
        <ele>46</ele>
        <time>2023-11-13T12:21:05Z</time>
      </trkpt>
      <trkpt lat="47.25389" lon="-1.65767">
        <ele>46</ele>
        <time>2023-11-13T12:21:47Z</time>
      </trkpt>
      <trkpt lat="47.254" lon="-1.65792">
        <ele>46</ele>
        <time>2023-11-13T12:22:14Z</time>
      </trkpt>
      <trkpt lat="47.25423" lon="-1.65824">
        <ele>45</ele>
        <time>2023-11-13T12:22:57Z</time>
      </trkpt>
      <trkpt lat="47.25451" lon="-1.65835">
        <ele>46</ele>
        <time>2023-11-13T12:23:35Z</time>
      </trkpt>
      <trkpt lat="47.25533" lon="-1.65851">
        <ele>50</ele>
        <time>2023-11-13T12:25:26Z</time>
      </trkpt>
      <trkpt lat="47.25519" lon="-1.65845">
        <ele>49</ele>
        <time>2023-11-13T12:25:45Z</time>
      </trkpt>
      <trkpt lat="47.25548" lon="-1.65863">
        <ele>51</ele>
        <time>2023-11-13T12:26:27Z</time>
      </trkpt>
      <trkpt lat="47.25601" lon="-1.65916">
        <ele>54</ele>
        <time>2023-11-13T12:27:53Z</time>
      </trkpt>
      <trkpt lat="47.25688" lon="-1.66007">
        <ele>56</ele>
        <time>2023-11-13T12:30:15Z</time>
      </trkpt>
      <trkpt lat="47.25781" lon="-1.65819">
        <ele>60</ele>
        <time>2023-11-13T12:33:46Z</time>
      </trkpt>
      <trkpt lat="47.25875" lon="-1.65634">
        <ele>63</ele>
        <time>2023-11-13T12:37:15Z</time>
      </trkpt>
      <trkpt lat="47.25928" lon="-1.65518">
        <ele>64</ele>
        <time>2023-11-13T12:39:22Z</time>
      </trkpt>
      <trkpt lat="47.25948" lon="-1.65473">
        <ele>65</ele>
        <time>2023-11-13T12:40:10Z</time>
      </trkpt>
      <trkpt lat="47.2595" lon="-1.65456">
        <ele>65</ele>
        <time>2023-11-13T12:40:26Z</time>
      </trkpt>
      <trkpt lat="47.26025" lon="-1.65454">
        <ele>67</ele>
        <time>2023-11-13T12:42:06Z</time>
      </trkpt>
      <trkpt lat="47.26033" lon="-1.65444">
        <ele>67</ele>
        <time>2023-11-13T12:42:20Z</time>
      </trkpt>
      <trkpt lat="47.25995" lon="-1.65354">
        <ele>66</ele>
        <time>2023-11-13T12:43:56Z</time>
      </trkpt>
      <trkpt lat="47.26031" lon="-1.65292">
        <ele>66</ele>
        <time>2023-11-13T12:45:10Z</time>
      </trkpt>
      <trkpt lat="47.26135" lon="-1.6525">
        <ele>66</ele>
        <time>2023-11-13T12:47:34Z</time>
      </trkpt>
      <trkpt lat="47.26209" lon="-1.65226">
        <ele>66</ele>
        <time>2023-11-13T12:49:15Z</time>
      </trkpt>
      <trkpt lat="47.2622" lon="-1.65233">
        <ele>66</ele>
        <time>2023-11-13T12:49:31Z</time>
      </trkpt>
      <trkpt lat="47.26256" lon="-1.65236">
        <ele>66</ele>
        <time>2023-11-13T12:50:19Z</time>
      </trkpt>
      <trkpt lat="47.26339" lon="-1.65222">
        <ele>64</ele>
        <time>2023-11-13T12:52:11Z</time>
      </trkpt>
      <trkpt lat="47.26466" lon="-1.65236">
        <ele>60</ele>
        <time>2023-11-13T12:55:00Z</time>
      </trkpt>
      <trkpt lat="47.26578" lon="-1.65254">
        <ele>58</ele>
        <time>2023-11-13T12:57:31Z</time>
      </trkpt>
      <trkpt lat="47.26606" lon="-1.65278">
        <ele>55</ele>
        <time>2023-11-13T12:58:14Z</time>
      </trkpt>
      <trkpt lat="47.26691" lon="-1.65326">
        <ele>46</ele>
        <time>2023-11-13T13:00:16Z</time>
      </trkpt>
      <trkpt lat="47.26741" lon="-1.65354">
        <ele>40</ele>
        <time>2023-11-13T13:01:27Z</time>
      </trkpt>
      <trkpt lat="47.26757" lon="-1.6539">
        <ele>40</ele>
        <time>2023-11-13T13:02:06Z</time>
      </trkpt>
      <trkpt lat="47.26768" lon="-1.65516">
        <ele>38</ele>
        <time>2023-11-13T13:04:01Z</time>
      </trkpt>
      <trkpt lat="47.2678" lon="-1.65541">
        <ele>36</ele>
        <time>2023-11-13T13:04:29Z</time>
      </trkpt>
      <trkpt lat="47.26795" lon="-1.65547">
        <ele>35</ele>
        <time>2023-11-13T13:04:49Z</time>
      </trkpt>
      <trkpt lat="47.2682" lon="-1.6554">
        <ele>32</ele>
        <time>2023-11-13T13:05:23Z</time>
      </trkpt>
      <trkpt lat="47.26846" lon="-1.65545">
        <ele>32</ele>
        <time>2023-11-13T13:05:58Z</time>
      </trkpt>
      <trkpt lat="47.26912" lon="-1.65614">
        <ele>40</ele>
        <time>2023-11-13T13:07:46Z</time>
      </trkpt>
      <trkpt lat="47.27014" lon="-1.65648">
        <ele>47</ele>
        <time>2023-11-13T13:10:06Z</time>
      </trkpt>
      <trkpt lat="47.27066" lon="-1.65656">
        <ele>49</ele>
        <time>2023-11-13T13:11:16Z</time>
      </trkpt>
      <trkpt lat="47.27132" lon="-1.65638">
        <ele>51</ele>
        <time>2023-11-13T13:12:45Z</time>
      </trkpt>
      <trkpt lat="47.27242" lon="-1.65636">
        <ele>53</ele>
        <time>2023-11-13T13:15:12Z</time>
      </trkpt>
      <trkpt lat="47.27447" lon="-1.65937">
        <ele>65</ele>
        <time>2023-11-13T13:21:38Z</time>
      </trkpt>
      <trkpt lat="47.27355" lon="-1.66183">
        <ele>62</ele>
        <time>2023-11-13T13:25:52Z</time>
      </trkpt>
      <trkpt lat="47.27317" lon="-1.66365">
        <ele>63</ele>
        <time>2023-11-13T13:28:45Z</time>
      </trkpt>
      <trkpt lat="47.27309" lon="-1.6664">
        <ele>61</ele>
        <time>2023-11-13T13:32:54Z</time>
      </trkpt>
      <trkpt lat="47.27197" lon="-1.66624">
        <ele>61</ele>
        <time>2023-11-13T13:35:24Z</time>
      </trkpt>
      <trkpt lat="47.27033" lon="-1.66508">
        <ele>57</ele>
        <time>2023-11-13T13:39:27Z</time>
      </trkpt>
      <trkpt lat="47.26912" lon="-1.66512">
        <ele>54</ele>
        <time>2023-11-13T13:42:09Z</time>
      </trkpt>
      <trkpt lat="47.26898" lon="-1.66467">
        <ele>54</ele>
        <time>2023-11-13T13:42:53Z</time>
      </trkpt>
      <trkpt lat="47.26897" lon="-1.66412">
        <ele>55</ele>
        <time>2023-11-13T13:43:43Z</time>
      </trkpt>
      <trkpt lat="47.26878" lon="-1.66381">
        <ele>55</ele>
        <time>2023-11-13T13:44:21Z</time>
      </trkpt>
      <trkpt lat="47.26846" lon="-1.66363">
        <ele>54</ele>
        <time>2023-11-13T13:45:07Z</time>
      </trkpt>
      <trkpt lat="47.26821" lon="-1.66355">
        <ele>53</ele>
        <time>2023-11-13T13:45:41Z</time>
      </trkpt>
      <trkpt lat="47.26811" lon="-1.66367">
        <ele>53</ele>
        <time>2023-11-13T13:45:58Z</time>
      </trkpt>
      <trkpt lat="47.26792" lon="-1.66377">
        <ele>51</ele>
        <time>2023-11-13T13:46:25Z</time>
      </trkpt>
      <trkpt lat="47.26774" lon="-1.66388">
        <ele>50</ele>
        <time>2023-11-13T13:46:51Z</time>
      </trkpt>
      <trkpt lat="47.26758" lon="-1.66395">
        <ele>48</ele>
        <time>2023-11-13T13:47:13Z</time>
      </trkpt>
      <trkpt lat="47.26749" lon="-1.66409">
        <ele>46</ele>
        <time>2023-11-13T13:47:31Z</time>
      </trkpt>
      <trkpt lat="47.26742" lon="-1.66439">
        <ele>44</ele>
        <time>2023-11-13T13:47:59Z</time>
      </trkpt>
      <trkpt lat="47.26752" lon="-1.66526">
        <ele>42</ele>
        <time>2023-11-13T13:49:19Z</time>
      </trkpt>
      <trkpt lat="47.26761" lon="-1.66557">
        <ele>42</ele>
        <time>2023-11-13T13:49:50Z</time>
      </trkpt>
      <trkpt lat="47.26754" lon="-1.66598">
        <ele>42</ele>
        <time>2023-11-13T13:50:28Z</time>
      </trkpt>
      <trkpt lat="47.26835" lon="-1.66756">
        <ele>39</ele>
        <time>2023-11-13T13:53:27Z</time>
      </trkpt>
      <trkpt lat="47.269" lon="-1.66805">
        <ele>42</ele>
        <time>2023-11-13T13:55:05Z</time>
      </trkpt>
      <trkpt lat="47.26931" lon="-1.66908">
        <ele>43</ele>
        <time>2023-11-13T13:56:47Z</time>
      </trkpt>
      <trkpt lat="47.26922" lon="-1.66975">
        <ele>41</ele>
        <time>2023-11-13T13:57:49Z</time>
      </trkpt>
      <trkpt lat="47.26896" lon="-1.67127">
        <ele>41</ele>
        <time>2023-11-13T14:00:11Z</time>
      </trkpt>
      <trkpt lat="47.26869" lon="-1.67145">
        <ele>40</ele>
        <time>2023-11-13T14:00:50Z</time>
      </trkpt>
      <trkpt lat="47.26841" lon="-1.67107">
        <ele>41</ele>
        <time>2023-11-13T14:01:41Z</time>
      </trkpt>
      <trkpt lat="47.26819" lon="-1.67116">
        <ele>42</ele>
        <time>2023-11-13T14:02:12Z</time>
      </trkpt>
    </trkseg>
  </trk>
</gpx>